Time;durP1;ratioP1;P1;durP2;ratioP2;P2;SDS_P1;SDS_P2;PMS_P1;PMS_P2;Temp;Humidity;BMP_temperature;BMP_pressure;BME280_temperature;BME280_humidity;BME280_pressure;Samples;Min_cycle;Max_cycle;Signal;HPM_P1;HPM_P2
2022/04/05 00:02:09;;;;;;;;;;;;;;;;;;4930340;28;19976;-55
2022/04/05 00:04:38;;;;;;;;;;;;;;;;;;4926624;28;19922;-55
2022/04/05 00:07:03;;;;;;;;;;;;;;;;;;4931742;28;19997;-56
2022/04/05 00:09:28;;;;;;;;;;;;;;;;;;4959606;28;19927;-56
2022/04/05 00:11:56;;;;;;;;;;;;;;;;;;4959583;28;19923;-56
2022/04/05 00:14:21;;;;;;;;;;;;;;;;;;4926062;28;19933;-56
2022/04/05 00:16:47;;;;;;;;;;;;;;;;;;4928213;28;19918;-55
2022/04/05 00:19:19;;;;;;;;;;;;;;;;;;4930133;28;19922;-57
2022/04/05 00:21:45;;;;;;;;;;;;;;;;;;4940936;28;19932;-56
2022/04/05 00:24:10;;;;;;;;;;;;;;;;;;4929751;28;20953;-56
2022/04/05 00:26:36;;;;;;;;;;;;;;;;;;4928917;28;19922;-56
2022/04/05 00:29:04;;;;;;;;;;;;;;;;;;4957520;28;19922;-58
2022/04/05 00:31:29;;;;;;;;;;;;;;;;;;4929385;28;19926;-54
2022/04/05 00:33:54;;;;;;;;;;;;;;;;;;4926855;28;19962;-57
2022/04/05 00:36:19;;;;;;;;;;;;;;;;;;4960982;28;19927;-56
2022/04/05 00:38:44;;;;;;;;;;;;;;;;;;4930190;28;19933;-57
2022/04/05 00:41:10;;;;;;;;;;;;;;;;;;4927286;28;19926;-56
2022/04/05 00:43:36;;;;;;;;;;;;;;;;;;4927814;28;20563;-58
2022/04/05 00:46:01;;;;;;;;;;;;;;;;;;4928409;28;20006;-55
2022/04/05 00:48:26;;;;;;;;;;;;;;;;;;4961160;28;20429;-56
2022/04/05 00:50:54;;;;;;;;;;;;;;;;;;4958293;28;19930;-55
2022/04/05 00:53:19;;;;;;;;;;;;;;;;;;4928426;28;19976;-57
2022/04/05 00:55:44;;;;;;;;;;;;;;;;;;4960301;28;20722;-56
2022/04/05 00:58:10;;;;;;;;;;;;;;;;;;4925432;28;20701;-56
2022/04/05 01:00:39;;;;;;;;;;;;;;;;;;4927570;28;19926;-56
2022/04/05 01:03:04;;;;;;;;;;;;;;;;;;4959546;28;19933;-57
2022/04/05 01:05:32;;;;;;;;;;;;;;;;;;4960334;28;19922;-56
2022/04/05 01:07:59;;;;;;;;;;;;;;;;;;4925656;28;19969;-56
2022/04/05 01:10:25;;;;;;;;;;;;;;;;;;4928385;28;19929;-56
2022/04/05 01:12:53;;;;;;;;;;;;;;;;;;4924540;28;19922;-55
2022/04/05 01:15:18;;;;;;;;;;;;;;;;;;4930279;28;19936;-56
2022/04/05 01:20:40;;;;;;;;;;;;;;;;;;4929935;28;19962;-56
2022/04/05 01:23:07;;;;;;;;;;;;;;;;;;4925229;28;19954;-57
2022/04/05 01:25:33;;;;;;;;;;;;;;;;;;4926389;28;19929;-56
2022/04/05 01:27:58;;;;;;;;;;;;;;;;;;4925826;28;19927;-52
2022/04/05 01:30:23;;;;;;;;;;;;;;;;;;4959510;28;19922;-53
2022/04/05 01:32:48;;;;;;;;;;;;;;;;;;4926257;28;20314;-55
2022/04/05 01:35:16;;;;;;;;;;;;;;;;;;4956400;28;19919;-54
2022/04/05 01:37:44;;;;;;;;;;;;;;;;;;4927358;28;20001;-55
2022/04/05 01:40:12;;;;;;;;;;;;;;;;;;4927435;28;21446;-54
2022/04/05 01:42:37;;;;;;;;;;;;;;;;;;4956545;28;19954;-54
2022/04/05 01:45:06;;;;;;;;;;;;;;;;;;4927439;28;19941;-54
2022/04/05 01:47:32;;;;;;;;;;;;;;;;;;4927466;28;19923;-55
2022/04/05 01:50:00;;;;;;;;;;;;;;;;;;4924320;28;19926;-54
2022/04/05 01:52:27;;;;;;;;;;;;;;;;;;4939689;28;19932;-55
2022/04/05 01:54:53;;;;;;;;;;;;;;;;;;4925624;28;20043;-54
2022/04/05 01:57:20;;;;;;;;;;;;;;;;;;4955575;28;19915;-55
2022/04/05 01:59:50;;;;;;;;;;;;;;;;;;4923645;28;20543;-55
2022/04/05 02:02:15;;;;;;;;;;;;;;;;;;4922420;28;19934;-54
2022/04/05 02:04:41;;;;;;;;;;;;;;;;;;4926035;28;19923;-54
2022/04/05 02:07:09;;;;;;;;;;;;;;;;;;4941573;28;21488;-55
2022/04/05 02:09:35;;;;;;;;;;;;;;;;;;4956479;28;20772;-56
2022/04/05 02:12:00;;;;;;;;;;;;;;;;;;4931039;28;19925;-54
2022/04/05 02:14:25;;;;;;;;;;;;;;;;;;4963685;28;19922;-55
2022/04/05 02:16:51;;;;;;;;;;;;;;;;;;4964906;28;19987;-54
2022/04/05 02:19:18;;;;;;;;;;;;;;;;;;4930227;28;19922;-55
2022/04/05 02:21:46;;;;;;;;;;;;;;;;;;4947754;28;20037;-56
2022/04/05 02:24:11;;;;;;;;;;;;;;;;;;4933248;28;20944;-55
2022/04/05 02:26:37;;;;;;;;;;;;;;;;;;4934365;28;19922;-56
2022/04/05 02:29:06;;;;;;;;;;;;;;;;;;4933976;28;19961;-56
2022/04/05 02:31:31;;;;;;;;;;;;;;;;;;4932149;28;19933;-55
2022/04/05 02:33:57;;;;;;;;;;;;;;;;;;4935830;28;20294;-56
2022/04/05 02:36:22;;;;;;;;;;;;;;;;;;4934500;28;19922;-55
2022/04/05 02:38:48;;;;;;;;;;;;;;;;;;4933346;28;20519;-55
2022/04/05 02:41:14;;;;;;;;;;;;;;;;;;4962755;28;19922;-56
2022/04/05 02:43:40;;;;;;;;;;;;;;;;;;4929947;28;19922;-55
2022/04/05 02:46:08;;;;;;;;;;;;;;;;;;4928836;28;19927;-55
2022/04/05 02:48:33;;;;;;;;;;;;;;;;;;4933721;28;19922;-56
2022/04/05 02:50:59;;;;;;;;;;;;;;;;;;4932857;28;19926;-56
2022/04/05 02:53:26;;;;;;;;;;;;;;;;;;4933044;28;19929;-56
2022/04/05 02:55:54;;;;;;;;;;;;;;;;;;4933921;28;19969;-56
2022/04/05 02:58:20;;;;;;;;;;;;;;;;;;4928188;28;21307;-57
2022/04/05 03:00:45;;;;;;;;;;;;;;;;;;4933349;28;19926;-57
2022/04/05 03:03:10;;;;;;;;;;;;;;;;;;4931862;28;19992;-57
2022/04/05 03:05:38;;;;;;;;;;;;;;;;;;4955508;28;20610;-57
2022/04/05 03:08:04;;;;;;;;;;;;;;;;;;4963933;28;19965;-55
2022/04/05 03:10:32;;;;;;;;;;;;;;;;;;4932165;28;19923;-57
2022/04/05 03:13:03;;;;;;;;;;;;;;;;;;4930473;28;19926;-55
2022/04/05 03:15:29;;;;;;;;;;;;;;;;;;4933421;28;19926;-57
2022/04/05 03:17:59;;;;;;;;;;;;;;;;;;4930670;28;19927;-57
2022/04/05 03:20:27;;;;;;;;;;;;;;;;;;4931177;28;19926;-57
2022/04/05 03:22:53;;;;;;;;;;;;;;;;;;4961389;28;20556;-57
2022/04/05 03:25:18;;;;;;;;;;;;;;;;;;4928383;28;19918;-56
2022/04/05 03:27:44;;;;;;;;;;;;;;;;;;4930448;28;19942;-57
2022/04/05 03:30:10;;;;;;;;;;;;;;;;;;4930284;28;20048;-57
2022/04/05 03:35:56;;;;;;;;;;;;;;;;;;4930501;28;19988;-56
2022/04/05 03:38:21;;;;;;;;;;;;;;;;;;4932887;28;19974;-56
2022/04/05 03:40:47;;;;;;;;;;;;;;;;;;4935909;28;19922;-57
2022/04/05 03:43:13;;;;;;;;;;;;;;;;;;4933882;28;20613;-56
2022/04/05 03:45:38;;;;;;;;;;;;;;;;;;4965197;28;20017;-57
2022/04/05 03:48:04;;;;;;;;;;;;;;;;;;4933431;28;20029;-57
2022/04/05 03:50:34;;;;;;;;;;;;;;;;;;4964990;28;19931;-57
2022/04/05 03:52:59;;;;;;;;;;;;;;;;;;4947597;28;20557;-59
2022/04/05 03:55:27;;;;;;;;;;;;;;;;;;4935108;28;19980;-56
2022/04/05 03:57:55;;;;;;;;;;;;;;;;;;4965565;28;19922;-58
2022/04/05 04:00:20;;;;;;;;;;;;;;;;;;4930537;28;19929;-57
2022/04/05 04:02:45;;;;;;;;;;;;;;;;;;4962097;28;20391;-58
2022/04/05 04:05:17;;;;;;;;;;;;;;;;;;4930544;28;19970;-57
2022/04/05 04:07:43;;;;;;;;;;;;;;;;;;4924548;28;19927;-57
2022/04/05 04:10:08;;;;;;;;;;;;;;;;;;4928950;28;19933;-58
2022/04/05 04:12:33;;;;;;;;;;;;;;;;;;4931945;28;19934;-57
2022/04/05 04:15:01;;;;;;;;;;;;;;;;;;4961152;28;19933;-57
2022/04/05 04:17:27;;;;;;;;;;;;;;;;;;4930516;28;21889;-57
2022/04/05 04:19:52;;;;;;;;;;;;;;;;;;4931040;28;19918;-57
2022/04/05 04:22:19;;;;;;;;;;;;;;;;;;4930876;28;19918;-57
2022/04/05 04:24:45;;;;;;;;;;;;;;;;;;4965284;28;21395;-57
2022/04/05 04:27:13;;;;;;;;;;;;;;;;;;4933817;28;21090;-58
2022/04/05 04:29:39;;;;;;;;;;;;;;;;;;4932309;28;19918;-57
2022/04/05 04:32:04;;;;;;;;;;;;;;;;;;4934104;28;19922;-57
2022/04/05 04:34:30;;;;;;;;;;;;;;;;;;4965904;28;20008;-57
2022/04/05 04:36:56;;;;;;;;;;;;;;;;;;4935141;28;19919;-57
2022/04/05 04:39:21;;;;;;;;;;;;;;;;;;4948715;28;21236;-58
2022/04/05 04:41:46;;;;;;;;;;;;;;;;;;4945341;28;20401;-58
2022/04/05 04:44:14;;;;;;;;;;;;;;;;;;4926921;28;19922;-58
2022/04/05 04:46:40;;;;;;;;;;;;;;;;;;4958456;28;19923;-57
2022/04/05 04:49:05;;;;;;;;;;;;;;;;;;4930781;28;20689;-58
2022/04/05 04:51:33;;;;;;;;;;;;;;;;;;4930215;28;19933;-57
2022/04/05 04:54:00;;;;;;;;;;;;;;;;;;4930837;28;19923;-57
2022/04/05 04:56:25;;;;;;;;;;;;;;;;;;4960023;28;19945;-57
2022/04/05 04:58:51;;;;;;;;;;;;;;;;;;4928670;28;19923;-57
2022/04/05 05:01:18;;;;;;;;;;;;;;;;;;4928857;28;21000;-57
2022/04/05 05:03:43;;;;;;;;;;;;;;;;;;4926942;28;19922;-56
2022/04/05 05:06:11;;;;;;;;;;;;;;;;;;4963113;28;20815;-56
2022/04/05 05:08:37;;;;;;;;;;;;;;;;;;4925962;28;19922;-57
2022/04/05 05:11:04;;;;;;;;;;;;;;;;;;4934529;28;19927;-57
2022/04/05 05:13:31;;;;;;;;;;;;;;;;;;4932053;28;21058;-57
2022/04/05 05:15:59;;;;;;;;;;;;;;;;;;4924731;28;20441;-57
2022/04/05 05:18:25;;;;;;;;;;;;;;;;;;4927272;28;19923;-58
2022/04/05 05:20:50;;;;;;;;;;;;;;;;;;4933290;28;19914;-58
2022/04/05 05:23:18;;;;;;;;;;;;;;;;;;4935123;28;19969;-58
2022/04/05 05:25:43;;;;;;;;;;;;;;;;;;4934718;28;19926;-57
2022/04/05 05:28:11;;;;;;;;;;;;;;;;;;4932760;28;19923;-60
2022/04/05 05:30:38;;;;;;;;;;;;;;;;;;4935145;28;19922;-58
2022/04/05 05:33:06;;;;;;;;;;;;;;;;;;4934260;28;19923;-58
2022/04/05 05:35:34;;;;;;;;;;;;;;;;;;4932816;28;19922;-58
2022/04/05 05:37:59;;;;;;;;;;;;;;;;;;4933677;28;20404;-58
2022/04/05 05:40:24;;;;;;;;;;;;;;;;;;4934705;28;19926;-60
2022/04/05 05:42:52;;;;;;;;;;;;;;;;;;4934852;28;19919;-58
2022/04/05 05:45:20;;;;;;;;;;;;;;;;;;4934958;28;19933;-59
2022/04/05 05:47:48;;;;;;;;;;;;;;;;;;4934508;28;19922;-58
2022/04/05 05:50:16;;;;;;;;;;;;;;;;;;4932161;28;19934;-58
2022/04/05 05:52:44;;;;;;;;;;;;;;;;;;4934721;28;20109;-59
2022/04/05 05:55:11;;;;;;;;;;;;;;;;;;4952151;28;19950;-58
2022/04/05 05:57:41;;;;;;;;;;;;;;;;;;4963584;28;20009;-58
2022/04/05 06:00:07;;;;;;;;;;;;;;;;;;4948968;28;20013;-58
2022/04/05 06:02:32;;;;;;;;;;;;;;;;;;4963979;28;20045;-59
2022/04/05 06:05:02;;;;;;;;;;;;;;;;;;4934239;28;19922;-57
2022/04/05 06:07:28;;;;;;;;;;;;;;;;;;4930943;28;19922;-57
2022/04/05 06:09:58;;;;;;;;;;;;;;;;;;4965126;28;19918;-57
2022/04/05 06:12:24;;;;;;;;;;;;;;;;;;4933908;28;19974;-57
2022/04/05 06:14:49;;;;;;;;;;;;;;;;;;4963868;28;19918;-57
2022/04/05 06:17:15;;;;;;;;;;;;;;;;;;4933467;28;19950;-58
2022/04/05 06:19:40;;;;;;;;;;;;;;;;;;4963601;28;19919;-57
2022/04/05 06:22:08;;;;;;;;;;;;;;;;;;4932367;28;19919;-58
2022/04/05 06:24:33;;;;;;;;;;;;;;;;;;4965433;28;19922;-58
2022/04/05 06:27:03;;;;;;;;;;;;;;;;;;4964016;28;19922;-58
2022/04/05 06:29:36;;;;;;;;;;;;;;;;;;4963891;28;19929;-57
2022/04/05 06:32:01;;;;;;;;;;;;;;;;;;4932717;28;20282;-57
2022/04/05 06:34:26;;;;;;;;;;;;;;;;;;4932537;28;19946;-57
2022/04/05 06:36:53;;;;;;;;;;;;;;;;;;4933055;28;19945;-57
2022/04/05 06:39:21;;;;;;;;;;;;;;;;;;4964493;28;19929;-58
2022/04/05 06:41:46;;;;;;;;;;;;;;;;;;4934095;28;20302;-57
2022/04/05 06:44:12;;;;;;;;;;;;;;;;;;4964979;28;19923;-57
2022/04/05 06:46:40;;;;;;;;;;;;;;;;;;4948062;28;19922;-57
2022/04/05 06:49:10;;;;;;;;;;;;;;;;;;4932820;28;19923;-57
2022/04/05 06:51:36;;;;;;;;;;;;;;;;;;4930640;28;20005;-58
2022/04/05 06:54:01;;;;;;;;;;;;;;;;;;4932935;28;20287;-57
2022/04/05 06:56:26;;;;;;;;;;;;;;;;;;4964003;28;19922;-57
2022/04/05 06:58:52;;;;;;;;;;;;;;;;;;4935212;28;19921;-58
2022/04/05 07:01:20;;;;;;;;;;;;;;;;;;4937780;28;20013;-59
2022/04/05 07:03:46;;;;;;;;;;;;;;;;;;4965105;28;19929;-59
2022/04/05 07:06:14;;;;;;;;;;;;;;;;;;4935656;28;19927;-59
2022/04/05 07:08:40;;;;;;;;;;;;;;;;;;4967917;28;19946;-57
2022/04/05 07:11:07;;;;;;;;;;;;;;;;;;4935965;28;20353;-57
2022/04/05 07:13:34;;;;;;;;;;;;;;;;;;4934325;28;21820;-57
2022/04/05 07:16:05;;;;;;;;;;;;;;;;;;4936693;28;19942;-57
2022/04/05 07:18:35;;;;;;;;;;;;;;;;;;4937560;28;19967;-58
2022/04/05 07:21:03;;;;;;;;;;;;;;;;;;4936729;28;19922;-58
2022/04/05 07:23:28;;;;;;;;;;;;;;;;;;4967720;28;19957;-58
2022/04/05 07:25:53;;;;;;;;;;;;;;;;;;4968347;28;19937;-58
2022/04/05 07:28:21;;;;;;;;;;;;;;;;;;4935790;28;19977;-58
2022/04/05 07:30:51;;;;;;;;;;;;;;;;;;4937622;28;19990;-58
2022/04/05 07:33:17;;;;;;;;;;;;;;;;;;4967779;28;19922;-59
2022/04/05 07:35:43;;;;;;;;;;;;;;;;;;4935562;28;19920;-58
2022/04/05 07:38:09;;;;;;;;;;;;;;;;;;4936432;28;19923;-58
2022/04/05 07:40:50;;;;;;;;;;;;;;;;;;4934305;28;20017;-58
2022/04/05 07:43:15;;;;;;;;;;;;;;;;;;4967316;28;19929;-58
2022/04/05 07:45:40;;;;;;;;;;;;;;;;;;4934745;28;19919;-58
2022/04/05 07:48:05;;;;;;;;;;;;;;;;;;4936894;28;19918;-58
2022/04/05 07:50:31;;;;;;;;;;;;;;;;;;4935862;28;19937;-58
2022/04/05 07:52:59;;;;;;;;;;;;;;;;;;4967301;28;19922;-59
2022/04/05 07:55:27;;;;;;;;;;;;;;;;;;4936476;28;21849;-59
2022/04/05 07:57:52;;;;;;;;;;;;;;;;;;4935223;28;19923;-59
2022/04/05 08:00:23;;;;;;;;;;;;;;;;;;4935935;28;19997;-58
2022/04/05 08:02:49;;;;;;;;;;;;;;;;;;4936215;28;19937;-59
2022/04/05 08:05:17;;;;;;;;;;;;;;;;;;4949266;28;20493;-59
2022/04/05 08:07:42;;;;;;;;;;;;;;;;;;4935656;28;19923;-59
2022/04/05 08:10:11;;;;;;;;;;;;;;;;;;4935028;28;19933;-59
2022/04/05 08:12:36;;;;;;;;;;;;;;;;;;4935911;28;21995;-59
2022/04/05 08:15:04;;;;;;;;;;;;;;;;;;4949171;28;19922;-59
2022/04/05 08:17:31;;;;;;;;;;;;;;;;;;4934910;28;20158;-59
2022/04/05 08:19:56;;;;;;;;;;;;;;;;;;4966657;28;19961;-59
2022/04/05 08:22:22;;;;;;;;;;;;;;;;;;4935451;28;19922;-59
2022/04/05 08:24:47;;;;;;;;;;;;;;;;;;4936330;28;20400;-58
2022/04/05 08:27:15;;;;;;;;;;;;;;;;;;4934666;28;19956;-58
2022/04/05 08:29:41;;;;;;;;;;;;;;;;;;4965940;28;19922;-58
2022/04/05 08:32:09;;;;;;;;;;;;;;;;;;4935913;28;20722;-59
2022/04/05 08:34:35;;;;;;;;;;;;;;;;;;4948792;28;19922;-58
2022/04/05 08:37:02;;;;;;;;;;;;;;;;;;4965909;28;19929;-57
2022/04/05 08:39:30;;;;;;;;;;;;;;;;;;4965338;28;20576;-58
2022/04/05 08:41:58;;;;;;;;;;;;;;;;;;4933139;28;20570;-57
2022/04/05 08:44:26;;;;;;;;;;;;;;;;;;4966120;28;21360;-59
2022/04/05 08:46:54;;;;;;;;;;;;;;;;;;4934641;28;20395;-59
2022/04/05 08:49:22;;;;;;;;;;;;;;;;;;4932332;28;19933;-58
2022/04/05 08:51:50;;;;;;;;;;;;;;;;;;4933289;28;19971;-59
2022/04/05 08:54:16;;;;;;;;;;;;;;;;;;4949388;28;19973;-59
2022/04/05 08:56:43;;;;;;;;;;;;;;;;;;4930961;28;19945;-60
2022/04/05 08:59:13;;;;;;;;;;;;;;;;;;4933988;28;19922;-58
2022/04/05 09:01:38;;;;;;;;;;;;;;;;;;4949786;28;20048;-58
2022/04/05 09:04:10;;;;;;;;;;;;;;;;;;4947585;28;19923;-58
2022/04/05 09:06:36;;;;;;;;;;;;;;;;;;4964845;28;19993;-58
2022/04/05 09:09:03;;;;;;;;;;;;;;;;;;4935370;28;19962;-60
2022/04/05 09:11:31;;;;;;;;;;;;;;;;;;4964405;28;19926;-59
2022/04/05 09:17:12;;;;;;;;;;;;;;;;;;4933536;28;20830;-59
2022/04/05 09:19:37;;;;;;;;;;;;;;;;;;4931234;28;20055;-59
2022/04/05 09:22:03;;;;;;;;;;;;;;;;;;4945675;28;19930;-60
2022/04/05 09:24:28;;;;;;;;;;;;;;;;;;4934847;28;19918;-60
2022/04/05 09:26:55;;;;;;;;;;;;;;;;;;4933787;28;20406;-60
2022/04/05 09:29:23;;;;;;;;;;;;;;;;;;4932371;28;19972;-59
2022/04/05 09:31:49;;;;;;;;;;;;;;;;;;4934933;28;20572;-59
2022/04/05 09:34:21;;;;;;;;;;;;;;;;;;4935023;28;20603;-59
2022/04/05 09:36:48;;;;;;;;;;;;;;;;;;4934155;28;19930;-59
2022/04/05 09:39:13;;;;;;;;;;;;;;;;;;4935461;28;19926;-58
2022/04/05 09:41:41;;;;;;;;;;;;;;;;;;4963978;28;19929;-57
2022/04/05 09:44:06;;;;;;;;;;;;;;;;;;4934097;28;21937;-59
2022/04/05 09:46:33;;;;;;;;;;;;;;;;;;4964310;28;19923;-58
2022/04/05 09:48:58;;;;;;;;;;;;;;;;;;4965244;28;20081;-59
2022/04/05 09:51:24;;;;;;;;;;;;;;;;;;4931702;28;19930;-60
2022/04/05 09:53:50;;;;;;;;;;;;;;;;;;4931697;28;19926;-58
2022/04/05 09:56:18;;;;;;;;;;;;;;;;;;4934177;28;19934;-59
2022/04/05 09:58:43;;;;;;;;;;;;;;;;;;4946337;28;19929;-59
2022/04/05 10:01:10;;;;;;;;;;;;;;;;;;4947708;28;19925;-59
2022/04/05 10:03:36;;;;;;;;;;;;;;;;;;4948023;28;19926;-59
2022/04/05 10:06:05;;;;;;;;;;;;;;;;;;4932415;28;19925;-59
2022/04/05 10:08:31;;;;;;;;;;;;;;;;;;4946678;28;19989;-59
2022/04/05 10:10:56;;;;;;;;;;;;;;;;;;4964040;28;20398;-58
2022/04/05 10:13:25;;;;;;;;;;;;;;;;;;4932374;28;19922;-59
2022/04/05 10:15:53;;;;;;;;;;;;;;;;;;4963640;28;19929;-59
2022/04/05 10:18:20;;;;;;;;;;;;;;;;;;4947488;28;20420;-59
2022/04/05 10:20:48;;;;;;;;;;;;;;;;;;4933306;28;20029;-59
2022/04/05 10:23:15;;;;;;;;;;;;;;;;;;4931882;28;20565;-59
2022/04/05 10:25:41;;;;;;;;;;;;;;;;;;4962932;28;19922;-59
2022/04/05 10:28:09;;;;;;;;;;;;;;;;;;4961999;28;19924;-59
2022/04/05 10:30:37;;;;;;;;;;;;;;;;;;4931470;28;19929;-58
2022/04/05 10:33:02;;;;;;;;;;;;;;;;;;4965906;28;20092;-58
2022/04/05 10:35:30;;;;;;;;;;;;;;;;;;4967291;28;20001;-57
2022/04/05 10:38:00;;;;;;;;;;;;;;;;;;4936353;28;20049;-58
2022/04/05 10:40:26;;;;;;;;;;;;;;;;;;4937031;28;19980;-58
2022/04/05 10:42:54;;;;;;;;;;;;;;;;;;4949290;28;20442;-59
2022/04/05 10:45:19;;;;;;;;;;;;;;;;;;4936780;28;19918;-58
2022/04/05 10:47:45;;;;;;;;;;;;;;;;;;4936512;28;20646;-58
2022/04/05 10:50:13;;;;;;;;;;;;;;;;;;4966180;28;19926;-59
2022/04/05 10:52:41;;;;;;;;;;;;;;;;;;4935605;28;19933;-58
2022/04/05 10:55:08;;;;;;;;;;;;;;;;;;4936862;28;20652;-59
2022/04/05 10:57:38;;;;;;;;;;;;;;;;;;4935128;28;19922;-58
2022/04/05 11:00:04;;;;;;;;;;;;;;;;;;4966379;28;19928;-59
2022/04/05 11:02:32;;;;;;;;;;;;;;;;;;4967354;28;19930;-59
2022/04/05 11:05:00;;;;;;;;;;;;;;;;;;4934896;28;20721;-59
2022/04/05 11:07:29;;;;;;;;;;;;;;;;;;4946207;28;20982;-59
2022/04/05 11:09:57;;;;;;;;;;;;;;;;;;4936558;28;19919;-59
2022/04/05 11:12:24;;;;;;;;;;;;;;;;;;4966425;28;19925;-59
2022/04/05 11:14:50;;;;;;;;;;;;;;;;;;4952118;28;19964;-58
2022/04/05 11:17:18;;;;;;;;;;;;;;;;;;4937000;28;19934;-59
2022/04/05 11:23:00;;;;;;;;;;;;;;;;;;4936031;28;19973;-59
2022/04/05 11:25:28;;;;;;;;;;;;;;;;;;4967848;28;20356;-58
2022/04/05 11:27:55;;;;;;;;;;;;;;;;;;4967605;28;19918;-59
2022/04/05 11:30:37;;;;;;;;;;;;;;;;;;4964923;28;19966;-59
2022/04/05 11:33:02;;;;;;;;;;;;;;;;;;4934924;28;20493;-59
2022/04/05 11:35:30;;;;;;;;;;;;;;;;;;4965269;28;19924;-59
2022/04/05 11:37:57;;;;;;;;;;;;;;;;;;4966573;28;20138;-59
2022/04/05 11:40:23;;;;;;;;;;;;;;;;;;4950872;28;19922;-56
2022/04/05 11:42:48;;;;;;;;;;;;;;;;;;4933165;28;19933;-59
2022/04/05 11:45:31;;;;;;;;;;;;;;;;;;4966791;28;20954;-59
2022/04/05 11:48:00;;;;;;;;;;;;;;;;;;4933887;28;19945;-59
2022/04/05 11:50:25;;;;;;;;;;;;;;;;;;4936166;28;20760;-59
2022/04/05 11:53:07;;;;;;;;;;;;;;;;;;4935439;28;19921;-58
2022/04/05 11:58:17;;;;;;;;;;;;;;;;;;4965467;28;22023;-60
2022/04/05 12:00:42;;;;;;;;;;;;;;;;;;4936266;28;19946;-59
2022/04/05 12:03:11;;;;;;;;;;;;;;;;;;4935932;28;20105;-59
2022/04/05 12:05:36;;;;;;;;;;;;;;;;;;4966010;28;19979;-59
2022/04/05 12:08:05;;;;;;;;;;;;;;;;;;4965185;28;19923;-60
2022/04/05 12:10:32;;;;;;;;;;;;;;;;;;4935263;28;19969;-60
2022/04/05 12:13:00;;;;;;;;;;;;;;;;;;4935227;28;20362;-60
2022/04/05 12:15:29;;;;;;;;;;;;;;;;;;4935532;28;19918;-60
2022/04/05 12:17:54;;;;;;;;;;;;;;;;;;4948302;28;19922;-60
2022/04/05 12:20:19;;;;;;;;;;;;;;;;;;4935057;28;20654;-59
2022/04/05 12:22:44;;;;;;;;;;;;;;;;;;4965828;28;20455;-60
2022/04/05 12:25:12;;;;;;;;;;;;;;;;;;4951040;28;19922;-60
2022/04/05 12:30:54;;;;;;;;;;;;;;;;;;4935217;28;19937;-60
2022/04/05 12:33:19;;;;;;;;;;;;;;;;;;4934632;28;19952;-59
2022/04/05 12:35:47;;;;;;;;;;;;;;;;;;4934950;28;20025;-60
2022/04/05 12:38:12;;;;;;;;;;;;;;;;;;4935361;28;19971;-60
2022/04/05 12:40:38;;;;;;;;;;;;;;;;;;4967205;28;20286;-60
2022/04/05 12:43:06;;;;;;;;;;;;;;;;;;4934413;28;20566;-60
2022/04/05 12:45:32;;;;;;;;;;;;;;;;;;4936076;28;20005;-58
2022/04/05 12:47:57;;;;;;;;;;;;;;;;;;4965405;28;21852;-59
2022/04/05 12:50:23;;;;;;;;;;;;;;;;;;4947596;28;19970;-57
2022/04/05 12:52:50;;;;;;;;;;;;;;;;;;4964237;28;19922;-58
2022/04/05 12:55:16;;;;;;;;;;;;;;;;;;4949429;28;22070;-58
2022/04/05 12:57:41;;;;;;;;;;;;;;;;;;4947777;28;19988;-60
2022/04/05 13:00:07;;;;;;;;;;;;;;;;;;4965245;28;21939;-57
2022/04/05 13:02:34;;;;;;;;;;;;;;;;;;4942800;28;20672;-59
2022/04/05 13:06:19;;;;;;;;;;;;;;;;;;4933609;28;20053;-58
2022/04/05 13:07:47;;;;;;;;;;;;;;;;;;4930510;28;19922;-58
2022/04/05 13:10:17;;;;;;;;;;;;;;;;;;4964790;28;20032;-58
2022/04/05 13:12:45;;;;;;;;;;;;;;;;;;4933630;28;20076;-58
2022/04/05 13:15:15;;;;;;;;;;;;;;;;;;4935181;28;20008;-59
2022/04/05 13:17:43;;;;;;;;;;;;;;;;;;4934435;28;19958;-58
2022/04/05 13:20:11;;;;;;;;;;;;;;;;;;4934544;28;19958;-58
2022/04/05 13:22:36;;;;;;;;;;;;;;;;;;4964275;28;20563;-59
2022/04/05 13:25:04;;;;;;;;;;;;;;;;;;4933977;28;19926;-59
2022/04/05 13:27:31;;;;;;;;;;;;;;;;;;4964098;28;19952;-57
2022/04/05 13:30:01;;;;;;;;;;;;;;;;;;4934702;28;19923;-59
2022/04/05 13:32:29;;;;;;;;;;;;;;;;;;4932609;28;20205;-56
2022/04/05 13:34:55;;;;;;;;;;;;;;;;;;4934177;28;19957;-58
2022/04/05 13:37:25;;;;;;;;;;;;;;;;;;4933843;28;20100;-59
2022/04/05 13:39:51;;;;;;;;;;;;;;;;;;4965737;28;19922;-58
2022/04/05 13:42:16;;;;;;;;;;;;;;;;;;4964444;28;19953;-57
2022/04/05 13:44:42;;;;;;;;;;;;;;;;;;4934006;28;19937;-55
2022/04/05 13:47:08;;;;;;;;;;;;;;;;;;4930432;28;19922;-56
2022/04/05 13:49:34;;;;;;;;;;;;;;;;;;4933416;28;20298;-57
2022/04/05 13:52:02;;;;;;;;;;;;;;;;;;4934370;28;20012;-58
2022/04/05 13:54:27;;;;;;;;;;;;;;;;;;4948220;28;19922;-55
2022/04/05 13:56:52;;;;;;;;;;;;;;;;;;4966009;28;20448;-56
2022/04/05 13:59:22;;;;;;;;;;;;;;;;;;4964659;28;19918;-55
2022/04/05 14:01:52;;;;;;;;;;;;;;;;;;4964568;28;20017;-57
2022/04/05 14:04:20;;;;;;;;;;;;;;;;;;4933745;28;20021;-56
2022/04/05 14:06:48;;;;;;;;;;;;;;;;;;4933339;28;19918;-56
2022/04/05 14:11:52;;;;;;;;;;;;;;;;;;4974179;28;19938;-90
2022/04/05 14:14:23;;;;;;;;;;;;;;;;;;4953519;28;19923;-89
2022/04/05 14:16:52;;;;;;;;;;;;;;;;;;4960599;28;19918;-88
2022/04/05 14:19:18;;;;;;;;;;;;;;;;;;4956863;28;19946;-87
2022/04/05 14:21:43;;;;;;;;;;;;;;;;;;4958342;28;19915;-87
2022/04/05 14:24:14;;;;;;;;;;;;;;;;;;4966160;28;19914;-88
2022/04/05 14:26:39;;;;;;;;;;;;;;;;;;4957544;28;19914;-89
2022/04/05 14:29:04;;;;;;;;;;;;;;;;;;4968665;28;20365;-88
2022/04/05 14:31:32;;;;;;;;;;;;;;;;;;4956752;28;19930;-89
2022/04/05 14:33:58;;;;;;;;;;;;;;;;;;4954214;28;19923;-89
2022/04/05 14:36:23;;;;;;;;;;;;;;;;;;4966717;28;19930;-87
2022/04/05 14:38:50;;;;;;;;;;;;;;;;;;4952675;29;19922;-86
2022/04/05 14:41:19;;;;;;;;;;;;;;;;;;4958977;28;20534;-86
2022/04/05 14:43:44;;;;;;;;;;;;;;;;;;4953438;28;20356;-87
2022/04/05 14:46:11;;;;;;;;;;;;;;;;;;4942374;28;19925;-88
2022/04/05 14:48:39;;;;;;;;;;;;;;;;;;4956228;28;19925;-90
2022/04/05 14:51:05;;;;;;;;;;;;;;;;;;4954661;28;20020;-87
2022/04/05 14:53:31;;;;;;;;;;;;;;;;;;4977360;28;20451;-87
2022/04/05 14:56:06;;;;;;;;;;;;;;;;;;4954603;28;19918;-85
2022/04/05 14:58:32;;;;;;;;;;;;;;;;;;4961081;28;19952;-85
2022/04/05 15:00:58;;;;;;;;;;;;;;;;;;4958070;28;19918;-86
2022/04/05 15:03:23;;;;;;;;;;;;;;;;;;4959943;28;19922;-86
2022/04/05 15:05:49;;;;;;;;;;;;;;;;;;4957134;28;20329;-86
2022/04/05 15:08:14;;;;;;;;;;;;;;;;;;4964712;28;19915;-90
2022/04/05 15:10:39;;;;;;;;;;;;;;;;;;4955457;28;19922;-85
2022/04/05 15:13:05;;;;;;;;;;;;;;;;;;4962575;28;20374;-90
2022/04/05 15:15:31;;;;;;;;;;;;;;;;;;4956644;28;20290;-86
2022/04/05 15:17:56;;;;;;;;;;;;;;;;;;4947376;28;19938;-87
2022/04/05 15:20:22;;;;;;;;;;;;;;;;;;4941906;29;19918;-88
2022/04/05 15:22:51;;;;;;;;;;;;;;;;;;4969427;28;19918;-88
2022/04/05 15:25:16;;;;;;;;;;;;;;;;;;4960247;28;19914;-85
2022/04/05 15:27:42;;;;;;;;;;;;;;;;;;4961098;28;19925;-87
2022/04/05 15:30:16;;;;;;;;;;;;;;;;;;4939116;28;19922;-87
2022/04/05 15:32:44;;;;;;;;;;;;;;;;;;4958681;28;19937;-89
2022/04/05 15:35:20;;;;;;;;;;;;;;;;;;;;;
2022/04/05 15:37:48;;;;;;;;;;;;;;;;;;4960474;28;19958;-86
2022/04/05 15:40:16;;;;;;;;;;;;;;;;;;4957182;28;19918;-85
2022/04/05 15:43:03;;;;;;;;;;;;;;;;;;4946972;29;19938;-86
2022/04/05 15:45:45;;;;;;;;;;;;;;;;;;4947838;29;19919;-87
2022/04/05 15:48:13;;;;;;;;;;;;;;;;;;4913779;29;19956;-89
2022/04/05 15:50:40;;;;;;;;;;;;;;;;;;4925296;29;20417;-88
2022/04/05 15:53:07;;;;;;;;;;;;;;;;;;4925899;29;19919;-89
2022/04/05 15:55:34;;;;;;;;;;;;;;;;;;4939437;29;19918;-87
2022/04/05 15:57:59;;;;;;;;;;;;;;;;;;4928207;29;19938;-87
2022/04/05 16:00:28;;;;;;;;;;;;;;;;;;4949251;29;19918;-87
2022/04/05 16:03:14;;;;;;;;;;;;;;;;;;4949007;29;19925;-87
2022/04/05 16:05:39;;;;;;;;;;;;;;;;;;4930800;29;20213;-85
2022/04/05 16:08:09;;;;;;;;;;;;;;;;;;4931215;29;19923;-86
2022/04/05 16:10:34;;;;;;;;;;;;;;;;;;4935633;29;19923;-85
2022/04/05 16:13:03;;;;;;;;;;;;;;;;;;4942435;29;19926;-87
2022/04/05 16:15:52;;;;;;;;;;;;;;;;;;4952833;29;19915;-86
2022/04/05 16:18:22;;;;;;;;;;;;;;;;;;4957406;28;20317;-86
2022/04/05 16:20:48;;;;;;;;;;;;;;;;;;4969215;28;20324;-88
2022/04/05 16:23:31;;;;;;;;;;;;;;;;;;4967073;28;19922;-85
2022/04/05 16:25:59;;;;;;;;;;;;;;;;;;4958105;29;19937;-85
2022/04/05 16:28:25;;;;;;;;;;;;;;;;;;4991209;28;19922;-84
2022/04/05 16:30:50;;;;;;;;;;;;;;;;;;4957307;28;19923;-87
2022/04/05 16:33:21;;;;;;;;;;;;;;;;;;4953243;28;19968;-89
2022/04/05 16:35:52;;;;;;;;;;;;;;;;;;4963930;28;19915;-89
2022/04/05 16:38:20;;;;;;;;;;;;;;;;;;4952024;28;20018;-88
2022/04/05 16:40:45;;;;;;;;;;;;;;;;;;4956046;28;20347;-85
2022/04/05 16:43:11;;;;;;;;;;;;;;;;;;4955775;28;19942;-89
2022/04/05 16:45:37;;;;;;;;;;;;;;;;;;4938340;29;19915;-90
2022/04/05 16:48:06;;;;;;;;;;;;;;;;;;4975956;28;19933;-87
2022/04/05 16:50:33;;;;;;;;;;;;;;;;;;4951737;28;19926;-86
2022/04/05 16:52:59;;;;;;;;;;;;;;;;;;4942146;28;19922;-87
2022/04/05 16:55:27;;;;;;;;;;;;;;;;;;4940247;28;19936;-89
2022/04/05 16:58:12;;;;;;;;;;;;;;;;;;4942902;28;19925;-86
2022/04/05 17:00:38;;;;;;;;;;;;;;;;;;4932301;28;19918;-88
2022/04/05 17:03:03;;;;;;;;;;;;;;;;;;4928796;28;19974;-87
2022/04/05 17:05:28;;;;;;;;;;;;;;;;;;4940573;29;19914;-88
2022/04/05 17:07:57;;;;;;;;;;;;;;;;;;4956553;28;19969;-88